createdAt,value
2019-02-17T00:00:39.592Z,14.70
2019-02-17T00:01:39.551Z,11.80
2019-02-17T00:02:39.550Z,11.20
2019-02-17T00:03:39.546Z,12.90
2019-02-17T00:04:39.539Z,19.40
2019-02-17T00:05:39.567Z,14.40
2019-02-17T00:06:39.741Z,12.40
2019-02-17T00:07:39.527Z,15.00
2019-02-17T00:08:39.516Z,12.90
2019-02-17T00:09:39.515Z,13.00
2019-02-17T00:10:39.538Z,11.80
2019-02-17T00:11:39.534Z,11.40
2019-02-17T00:12:39.503Z,12.50
2019-02-17T00:13:39.500Z,12.90
2019-02-17T00:14:39.491Z,12.90
2019-02-17T00:15:39.490Z,11.00
2019-02-17T00:16:39.505Z,11.30
2019-02-17T00:17:39.484Z,15.30
2019-02-17T00:18:39.475Z,13.30
2019-02-17T00:19:39.471Z,15.00
2019-02-17T00:20:39.489Z,13.50
2019-02-17T00:21:39.458Z,14.80
2019-02-17T00:22:39.455Z,13.20
2019-02-17T00:23:39.451Z,12.20
2019-02-17T00:24:39.446Z,14.10
2019-02-17T00:25:39.467Z,13.00
2019-02-17T00:26:39.435Z,12.80
2019-02-17T00:27:39.432Z,13.30
2019-02-17T00:28:39.423Z,12.60
2019-02-17T00:29:39.419Z,14.10
2019-02-17T00:30:39.445Z,12.70
2019-02-17T00:31:39.438Z,13.20
2019-02-17T00:32:39.402Z,14.00
2019-02-17T00:33:39.400Z,14.00
2019-02-17T00:34:39.399Z,14.40
2019-02-17T00:35:39.392Z,13.70
2019-02-17T00:36:39.412Z,14.30
2019-02-17T00:37:39.378Z,13.10
2019-02-17T00:38:39.374Z,13.40
2019-02-17T00:39:39.371Z,14.40
2019-02-17T00:40:39.362Z,14.70
2019-02-17T00:41:39.387Z,16.90
2019-02-17T00:42:39.384Z,13.00
2019-02-17T00:43:39.346Z,13.30
2019-02-17T00:44:39.341Z,13.70
2019-02-17T00:45:39.339Z,14.50
2019-02-17T00:46:39.334Z,13.30
2019-02-17T00:47:39.355Z,14.70
2019-02-17T00:48:39.323Z,15.50
2019-02-17T00:49:39.322Z,16.10
2019-02-17T00:50:39.311Z,14.20
2019-02-17T00:51:39.309Z,14.80
2019-02-17T00:52:39.328Z,16.20
2019-02-17T00:53:39.298Z,15.40
2019-02-17T00:54:39.291Z,15.20
2019-02-17T00:55:39.285Z,15.00
2019-02-17T00:56:39.281Z,14.10
2019-02-17T00:57:39.303Z,14.50
2019-02-17T00:58:39.275Z,16.20
2019-02-17T00:59:39.263Z,14.70
2019-02-17T01:00:39.259Z,15.20
2019-02-17T01:01:39.260Z,13.60
2019-02-17T01:02:39.277Z,15.10
2019-02-17T01:03:39.247Z,13.40
2019-02-17T01:04:39.241Z,16.00
2019-02-17T01:05:39.235Z,14.90
2019-02-17T01:06:39.230Z,14.90
2019-02-17T01:07:39.252Z,13.80
2019-02-17T01:08:39.220Z,12.80
2019-02-17T01:09:39.215Z,14.20
2019-02-17T01:10:39.215Z,12.90
2019-02-17T01:11:39.204Z,15.00
2019-02-17T01:12:39.227Z,12.80
2019-02-17T01:13:39.190Z,15.20
2019-02-17T01:14:39.202Z,13.10
2019-02-17T01:15:39.191Z,13.40
2019-02-17T01:16:39.209Z,14.50
2019-02-17T01:17:39.202Z,16.70
2019-02-17T01:18:39.167Z,13.70
2019-02-17T01:19:39.163Z,14.30
2019-02-17T01:20:39.154Z,13.00
2019-02-17T01:21:39.149Z,13.20
2019-02-17T01:22:39.171Z,15.10
2019-02-17T01:23:39.143Z,14.50
2019-02-17T01:24:39.134Z,14.10
2019-02-17T01:25:39.135Z,13.90
2019-02-17T01:26:39.127Z,14.30
2019-02-17T01:27:39.148Z,16.30
2019-02-17T01:28:39.138Z,17.40
2019-02-17T01:29:39.107Z,15.20
2019-02-17T01:30:39.101Z,15.40
2019-02-17T01:31:39.127Z,17.00
2019-02-17T01:32:39.092Z,16.00
2019-02-17T01:33:39.114Z,12.60
2019-02-17T01:34:39.083Z,15.00
2019-02-17T01:35:39.078Z,13.80
2019-02-17T01:36:39.072Z,15.40
2019-02-17T01:37:39.095Z,15.10
2019-02-17T01:38:39.062Z,14.70
2019-02-17T01:39:39.062Z,14.50
2019-02-17T01:40:39.050Z,15.80
2019-02-17T01:41:39.054Z,14.90
2019-02-17T01:42:39.070Z,15.80
2019-02-17T01:43:39.034Z,16.00
2019-02-17T01:44:39.032Z,17.50
2019-02-17T01:45:39.022Z,17.30
2019-02-17T01:46:39.020Z,19.70
2019-02-17T01:47:39.043Z,17.70
2019-02-17T01:48:39.004Z,17.10
2019-02-17T01:49:39.001Z,18.30
2019-02-17T01:50:39.003Z,17.90
2019-02-17T01:51:38.996Z,18.90
2019-02-17T01:52:39.012Z,18.70
2019-02-17T01:53:38.986Z,17.40
2019-02-17T01:54:38.978Z,17.40
2019-02-17T01:55:38.968Z,18.40
2019-02-17T01:56:38.968Z,19.00
2019-02-17T01:57:38.995Z,17.30
2019-02-17T01:58:38.951Z,17.70
2019-02-17T01:59:38.950Z,16.50
2019-02-17T02:00:38.945Z,16.20
2019-02-17T02:01:38.942Z,16.80
2019-02-17T02:02:38.966Z,17.00
2019-02-17T02:03:38.927Z,15.60
2019-02-17T02:04:38.955Z,18.00
2019-02-17T02:05:38.928Z,17.20
2019-02-17T02:06:38.916Z,15.60
2019-02-17T02:07:38.908Z,15.00
2019-02-17T02:08:38.931Z,14.10
2019-02-17T02:09:38.902Z,15.60
2019-02-17T02:10:38.898Z,15.40
2019-02-17T02:11:38.896Z,15.40
2019-02-17T02:12:38.912Z,14.90
2019-02-17T02:13:38.890Z,15.60
2019-02-17T02:14:38.878Z,17.40
2019-02-17T02:15:38.872Z,18.00
2019-02-17T02:16:38.868Z,18.00
2019-02-17T02:17:38.948Z,16.50
2019-02-17T02:18:38.855Z,18.30
2019-02-17T02:19:38.853Z,17.30
2019-02-17T02:20:38.847Z,16.50
2019-02-17T02:21:38.844Z,18.10
2019-02-17T02:22:38.869Z,17.30
2019-02-17T02:23:38.832Z,18.20
2019-02-17T02:24:38.828Z,16.00
2019-02-17T02:25:38.849Z,20.90
2019-02-17T02:26:38.824Z,20.90
2019-02-17T02:27:38.811Z,16.60
2019-02-17T02:28:38.836Z,16.70
2019-02-17T02:29:41.335Z,19.40
2019-02-17T02:30:38.797Z,18.30
2019-02-17T02:31:38.791Z,17.90
2019-02-17T02:32:38.788Z,20.40
2019-02-17T02:33:38.807Z,18.70
2019-02-17T02:34:38.779Z,18.20
2019-02-17T02:35:38.776Z,20.30
2019-02-17T02:36:38.762Z,18.30
2019-02-17T02:37:38.785Z,17.70
2019-02-17T02:38:38.784Z,19.60
2019-02-17T02:39:38.751Z,20.40
2019-02-17T02:40:38.744Z,20.10
2019-02-17T02:41:38.730Z,21.00
2019-02-17T02:42:38.726Z,20.20
2019-02-17T02:43:38.762Z,18.20
2019-02-17T02:44:38.717Z,21.10
2019-02-17T02:45:38.750Z,20.30
2019-02-17T02:46:38.713Z,20.90
2019-02-17T02:47:38.703Z,19.90
2019-02-17T02:48:38.703Z,20.90
2019-02-17T02:49:38.687Z,19.10
2019-02-17T02:50:38.719Z,19.20
2019-02-17T02:51:38.721Z,18.50
2019-02-17T02:52:38.671Z,18.10
2019-02-17T02:53:38.678Z,18.60
2019-02-17T02:54:38.666Z,19.70
2019-02-17T02:55:38.663Z,19.90
2019-02-17T02:56:38.659Z,17.50
2019-02-17T02:57:38.681Z,17.00
2019-02-17T02:58:38.638Z,19.00
2019-02-17T02:59:38.636Z,20.50
2019-02-17T03:00:38.624Z,20.20
2019-02-17T03:01:38.625Z,19.20
2019-02-17T03:02:38.619Z,18.00
2019-02-17T03:03:38.646Z,19.10
2019-02-17T03:04:38.612Z,18.60
2019-02-17T03:05:38.640Z,21.00
2019-02-17T03:06:38.595Z,21.70
2019-02-17T03:07:38.598Z,21.50
2019-02-17T03:08:38.596Z,20.90
2019-02-17T03:09:38.615Z,19.90
2019-02-17T03:10:38.570Z,21.00
2019-02-17T03:11:38.603Z,21.40
2019-02-17T03:12:38.568Z,19.20
2019-02-17T03:13:38.557Z,19.10
2019-02-17T03:14:38.551Z,19.00
2019-02-17T03:15:38.598Z,20.20
2019-02-17T03:16:38.568Z,20.60
2019-02-17T03:17:38.536Z,20.20
2019-02-17T03:18:38.529Z,19.60
2019-02-17T03:19:38.522Z,18.20
2019-02-17T03:20:38.515Z,21.00
2019-02-17T03:21:38.544Z,20.20
2019-02-17T03:22:38.501Z,21.70
2019-02-17T03:23:38.498Z,21.40
2019-02-17T03:24:38.495Z,22.10
2019-02-17T03:25:38.486Z,20.30
2019-02-17T03:26:38.520Z,21.90
2019-02-17T03:27:38.478Z,22.40
2019-02-17T03:28:38.470Z,21.50
2019-02-17T03:29:38.473Z,21.80
2019-02-17T03:30:38.461Z,21.80
2019-02-17T03:31:38.494Z,18.50
2019-02-17T03:32:38.446Z,20.60
2019-02-17T03:33:38.437Z,22.20
2019-02-17T03:34:38.440Z,23.50
2019-02-17T03:35:38.434Z,23.90
2019-02-17T03:36:38.461Z,21.30
2019-02-17T03:37:38.418Z,23.00
2019-02-17T03:38:38.412Z,24.10
2019-02-17T03:39:38.406Z,21.90
2019-02-17T03:40:38.406Z,24.40
2019-02-17T03:41:38.429Z,23.00
2019-02-17T03:42:38.385Z,23.70
2019-02-17T03:43:38.381Z,21.80
2019-02-17T03:44:38.380Z,23.40
2019-02-17T03:45:38.368Z,22.10
2019-02-17T03:46:38.394Z,23.00
2019-02-17T03:47:38.363Z,21.80
2019-02-17T03:48:38.359Z,24.80
2019-02-17T03:49:38.347Z,22.40
2019-02-17T03:50:38.347Z,22.00
2019-02-17T03:51:38.335Z,22.10
2019-02-17T03:52:38.373Z,20.60
2019-02-17T03:53:38.334Z,18.50
2019-02-17T03:54:38.323Z,22.20
2019-02-17T03:55:38.314Z,18.80
2019-02-17T03:56:38.348Z,20.90
2019-02-17T03:57:38.302Z,21.60
2019-02-17T03:58:38.296Z,20.20
2019-02-17T03:59:38.295Z,19.60
2019-02-17T04:00:38.287Z,21.40
2019-02-17T04:01:38.321Z,23.40
2019-02-17T04:02:38.280Z,22.10
2019-02-17T04:03:38.266Z,24.20
2019-02-17T04:04:38.258Z,20.50
2019-02-17T04:05:38.253Z,23.70
2019-02-17T04:06:38.407Z,20.70
2019-02-17T04:07:38.248Z,23.90
2019-02-17T04:08:38.241Z,22.20
2019-02-17T04:09:38.238Z,24.10
2019-02-17T04:10:38.230Z,24.40
2019-02-17T04:11:38.235Z,23.30
2019-02-17T04:12:38.248Z,22.00
2019-02-17T04:13:38.216Z,21.60
2019-02-17T04:14:38.203Z,20.10
2019-02-17T04:15:38.199Z,21.90
2019-02-17T04:16:38.224Z,23.00
2019-02-17T04:17:38.181Z,20.10
2019-02-17T04:18:38.219Z,24.90
2019-02-17T04:19:38.174Z,22.80
2019-02-17T04:20:38.184Z,20.30
2019-02-17T04:21:38.161Z,23.00
2019-02-17T04:22:38.187Z,22.90
2019-02-17T04:23:38.157Z,21.20
2019-02-17T04:24:38.141Z,24.60
2019-02-17T04:25:38.136Z,20.70
2019-02-17T04:26:38.132Z,20.60
2019-02-17T04:27:38.130Z,21.80
2019-02-17T04:28:38.162Z,21.90
2019-02-17T04:29:38.114Z,23.60
2019-02-17T04:30:38.115Z,24.30
2019-02-17T04:31:38.103Z,26.40
2019-02-17T04:32:38.125Z,22.20
2019-02-17T04:33:38.093Z,24.30
2019-02-17T04:34:38.116Z,22.50
2019-02-17T04:35:38.087Z,23.50
2019-02-17T04:36:38.125Z,23.10
2019-02-17T04:37:38.103Z,22.80
2019-02-17T04:38:38.060Z,26.30
2019-02-17T04:39:38.059Z,25.00
2019-02-17T04:40:38.058Z,24.50
2019-02-17T04:41:38.051Z,22.50
2019-02-17T04:42:38.070Z,26.90
2019-02-17T04:43:38.034Z,24.60
2019-02-17T04:44:38.035Z,23.10
2019-02-17T04:45:38.023Z,27.50
2019-02-17T04:46:38.023Z,22.10
2019-02-17T04:47:38.046Z,25.60
2019-02-17T04:48:38.001Z,24.00
2019-02-17T04:49:37.996Z,22.50
2019-02-17T04:50:37.993Z,20.40
2019-02-17T04:51:37.993Z,22.10
2019-02-17T04:52:38.014Z,23.10
2019-02-17T04:53:38.008Z,23.70
2019-02-17T04:54:37.974Z,24.40
2019-02-17T04:55:37.965Z,23.80
2019-02-17T04:56:37.956Z,26.20
2019-02-17T04:57:37.995Z,22.30
2019-02-17T04:58:37.949Z,21.50
2019-02-17T04:59:37.941Z,21.10
2019-02-17T05:00:40.489Z,25.80
2019-02-17T05:01:37.969Z,22.10
2019-02-17T05:02:37.973Z,25.00
2019-02-17T05:03:37.918Z,25.40
2019-02-17T05:04:37.911Z,24.10
2019-02-17T05:05:37.905Z,26.80
2019-02-17T05:06:40.667Z,20.80
2019-02-17T05:07:37.925Z,22.00
2019-02-17T05:08:37.887Z,25.50
2019-02-17T05:09:37.892Z,26.30
2019-02-17T05:10:37.876Z,24.40
2019-02-17T05:11:37.875Z,21.70
2019-02-17T05:12:37.913Z,25.30
2019-02-17T05:13:37.860Z,23.10
2019-02-17T05:14:37.863Z,21.80
2019-02-17T05:15:37.850Z,24.50
2019-02-17T05:16:37.857Z,22.10
2019-02-17T05:17:37.865Z,25.10
2019-02-17T05:18:37.861Z,24.50
2019-02-17T05:19:37.861Z,22.40
2019-02-17T05:20:37.824Z,24.10
2019-02-17T05:21:37.814Z,25.60
2019-02-17T05:22:39.384Z,24.80
2019-02-17T05:23:37.802Z,25.80
2019-02-17T05:24:37.840Z,24.00
2019-02-17T05:25:37.789Z,24.30
2019-02-17T05:26:37.796Z,22.90
2019-02-17T05:27:37.776Z,25.30
2019-02-17T05:28:38.302Z,23.60
2019-02-17T05:29:37.882Z,24.70
2019-02-17T05:30:38.482Z,24.40
2019-02-17T05:31:37.763Z,26.00
2019-02-17T05:32:37.789Z,29.30
2019-02-17T05:33:37.740Z,25.90
2019-02-17T05:34:37.736Z,25.40
2019-02-17T05:35:37.729Z,25.20
2019-02-17T05:36:37.760Z,25.50
2019-02-17T05:37:37.718Z,26.90
2019-02-17T05:38:37.754Z,30.20
2019-02-17T05:39:37.738Z,32.20
2019-02-17T05:40:39.299Z,29.60
2019-02-17T05:41:37.692Z,29.50
2019-02-17T05:42:37.689Z,30.60
2019-02-17T05:43:37.710Z,34.50
2019-02-17T05:44:37.714Z,31.80
2019-02-17T05:45:37.669Z,27.40
2019-02-17T05:46:39.566Z,27.40
2019-02-17T05:47:37.656Z,24.70
2019-02-17T05:48:39.795Z,28.70
2019-02-17T05:49:37.658Z,27.60
2019-02-17T05:50:37.678Z,31.30
2019-02-17T05:51:37.642Z,30.00
2019-02-17T05:52:37.690Z,28.70
2019-02-17T05:53:37.630Z,31.30
2019-02-17T05:54:37.615Z,28.70
2019-02-17T05:55:37.620Z,26.90
2019-02-17T05:56:37.641Z,27.60
2019-02-17T05:57:37.599Z,27.00
2019-02-17T05:58:37.627Z,27.70
2019-02-17T05:59:37.583Z,30.20
2019-02-17T06:00:37.673Z,29.70
2019-02-17T06:01:37.669Z,31.10
2019-02-17T06:02:37.573Z,33.40
2019-02-17T06:03:37.597Z,29.20
2019-02-17T06:04:37.557Z,44.90
2019-02-17T06:05:37.550Z,35.40
2019-02-17T06:06:37.544Z,50.50
2019-02-17T06:07:37.546Z,43.00
2019-02-17T06:08:37.961Z,55.70
2019-02-17T06:09:37.531Z,42.70
2019-02-17T06:10:37.607Z,39.20
2019-02-17T06:11:37.811Z,33.60
2019-02-17T06:12:37.498Z,32.70
2019-02-17T06:13:37.539Z,31.00
2019-02-17T06:14:37.497Z,30.00
2019-02-17T06:15:37.495Z,29.90
2019-02-17T06:16:37.496Z,31.20
2019-02-17T06:17:37.479Z,31.80
2019-02-17T06:18:37.500Z,33.40
2019-02-17T06:19:37.509Z,32.10
2019-02-17T06:20:37.463Z,28.90
2019-02-17T06:21:37.453Z,33.30
2019-02-17T06:22:37.450Z,34.60
2019-02-17T06:23:37.474Z,37.90
2019-02-17T06:24:37.433Z,32.70
2019-02-17T06:25:37.460Z,31.60
2019-02-17T06:26:37.427Z,36.10
2019-02-17T06:27:37.419Z,31.40
2019-02-17T06:28:37.412Z,39.80
2019-02-17T06:29:37.415Z,32.70
2019-02-17T06:30:37.400Z,41.10
2019-02-17T06:31:37.428Z,39.60
2019-02-17T06:32:37.386Z,35.40
2019-02-17T06:33:37.380Z,56.60
2019-02-17T06:34:37.380Z,35.00
2019-02-17T06:35:37.366Z,44.00
2019-02-17T06:36:37.393Z,61.50
2019-02-17T06:37:37.352Z,55.40
2019-02-17T06:38:37.389Z,53.80
2019-02-17T06:39:37.344Z,71.90
2019-02-17T06:40:37.342Z,71.40
2019-02-17T06:41:37.335Z,64.50
2019-02-17T06:42:37.332Z,62.70
2019-02-17T06:43:37.357Z,55.60
2019-02-17T06:44:37.354Z,59.80
2019-02-17T06:45:37.311Z,52.90
2019-02-17T06:46:37.452Z,43.20
2019-02-17T06:47:37.301Z,43.30
2019-02-17T06:48:37.330Z,41.70
2019-02-17T06:49:37.292Z,38.60
2019-02-17T06:50:37.288Z,36.60
2019-02-17T06:51:37.270Z,34.30
2019-02-17T06:52:37.275Z,35.40
2019-02-17T06:53:37.290Z,34.20
2019-02-17T06:54:37.253Z,35.70
2019-02-17T06:55:37.255Z,36.80
2019-02-17T06:56:37.273Z,35.80
2019-02-17T06:57:37.234Z,38.80
2019-02-17T06:58:37.232Z,33.00
2019-02-17T06:59:37.264Z,31.80
2019-02-17T07:00:37.219Z,34.80
2019-02-17T07:01:37.222Z,31.80
2019-02-17T07:02:37.277Z,33.60
2019-02-17T07:03:37.200Z,30.90
2019-02-17T07:04:37.238Z,34.80
2019-02-17T07:05:37.198Z,33.30
2019-02-17T07:06:37.177Z,32.30
2019-02-17T07:07:37.198Z,35.80
2019-02-17T07:08:37.232Z,36.90
2019-02-17T07:09:37.191Z,43.40
2019-02-17T07:10:37.154Z,35.30
2019-02-17T07:11:37.158Z,38.30
2019-02-17T07:12:37.142Z,39.30
2019-02-17T07:13:37.142Z,40.90
2019-02-17T07:14:38.439Z,39.80
2019-02-17T07:15:37.126Z,40.20
2019-02-17T07:16:37.117Z,39.50
2019-02-17T07:17:37.787Z,40.80
2019-02-17T07:18:37.185Z,36.70
2019-02-17T07:19:37.133Z,30.80
2019-02-17T07:20:37.136Z,29.70
2019-02-17T07:21:37.093Z,28.70
2019-02-17T07:22:37.091Z,27.40
2019-02-17T07:23:37.083Z,28.70
2019-02-17T07:24:37.189Z,30.50
2019-02-17T07:25:37.088Z,28.50
2019-02-17T07:26:37.802Z,29.80
2019-02-17T07:27:37.069Z,28.80
2019-02-17T07:28:37.091Z,29.50
2019-02-17T07:29:37.787Z,30.50
2019-02-17T07:30:37.094Z,35.70
2019-02-17T07:31:37.061Z,30.70
2019-02-17T07:32:37.087Z,32.30
2019-02-17T07:33:37.123Z,32.00
2019-02-17T07:34:37.100Z,44.00
2019-02-17T07:35:37.121Z,38.10
2019-02-17T07:36:37.055Z,40.80
2019-02-17T07:37:37.069Z,47.80
2019-02-17T07:38:37.075Z,70.40
2019-02-17T07:39:37.143Z,58.10
2019-02-17T07:40:37.094Z,55.00
2019-02-17T07:41:37.042Z,60.60
2019-02-17T07:42:37.069Z,60.40
2019-02-17T07:43:37.046Z,57.30
2019-02-17T07:44:37.088Z,41.50
2019-02-17T07:45:37.048Z,45.50
2019-02-17T07:46:37.052Z,51.40
2019-02-17T07:47:37.797Z,34.20
2019-02-17T07:48:37.046Z,36.70
2019-02-17T07:49:37.171Z,33.20
2019-02-17T07:50:37.084Z,35.70
2019-02-17T07:51:37.054Z,31.30
2019-02-17T07:52:37.053Z,41.80
2019-02-17T07:53:37.056Z,40.00
2019-02-17T07:54:37.519Z,34.40
2019-02-17T07:55:37.096Z,31.70
2019-02-17T07:56:37.071Z,24.50
2019-02-17T07:57:37.062Z,24.60
2019-02-17T07:58:37.073Z,24.40
2019-02-17T07:59:37.461Z,27.20
2019-02-17T08:00:37.087Z,24.80
2019-02-17T08:01:45.011Z,24.60
2019-02-17T08:02:37.075Z,24.70
2019-02-17T08:03:37.153Z,28.10
2019-02-17T08:04:37.222Z,24.40
2019-02-17T08:05:37.159Z,23.50
2019-02-17T08:06:37.099Z,24.80
2019-02-17T08:07:37.094Z,25.30
2019-02-17T08:08:37.915Z,21.10
2019-02-17T08:09:37.154Z,21.40
2019-02-17T08:10:37.109Z,22.20
2019-02-17T08:11:37.111Z,22.80
2019-02-17T08:12:37.116Z,19.50
2019-02-17T08:13:37.121Z,20.90
2019-02-17T08:14:37.129Z,21.40
2019-02-17T08:15:37.170Z,19.70
2019-02-17T08:16:37.138Z,23.10
2019-02-17T08:17:37.154Z,20.30
2019-02-17T08:18:37.155Z,21.20
2019-02-17T08:19:37.158Z,22.10
2019-02-17T08:20:37.195Z,20.50
2019-02-17T08:21:37.172Z,23.10
2019-02-17T08:22:37.179Z,19.80
2019-02-17T08:23:37.185Z,20.70
2019-02-17T08:24:37.192Z,20.60
2019-02-17T08:25:37.216Z,20.40
2019-02-17T08:26:37.235Z,23.50
2019-02-17T08:27:37.200Z,21.10
2019-02-17T08:28:37.215Z,22.30
2019-02-17T08:29:37.217Z,22.40
2019-02-17T08:30:37.258Z,21.80
2019-02-17T08:31:37.248Z,22.60
2019-02-17T08:32:37.234Z,21.60
2019-02-17T08:33:37.245Z,19.80
2019-02-17T08:34:37.253Z,21.60
2019-02-17T08:35:37.290Z,21.30
2019-02-17T08:36:37.266Z,21.30
2019-02-17T08:37:37.321Z,21.50
2019-02-17T08:38:37.298Z,21.20
2019-02-17T08:39:37.305Z,23.20
2019-02-17T08:40:37.303Z,22.40
2019-02-17T08:41:37.313Z,22.10
2019-02-17T08:42:37.351Z,22.50
2019-02-17T08:43:37.363Z,22.00
2019-02-17T08:44:37.336Z,23.50
2019-02-17T08:45:37.352Z,23.10
2019-02-17T08:46:37.354Z,22.60
2019-02-17T08:47:37.428Z,21.30
2019-02-17T08:48:37.411Z,21.90
2019-02-17T08:49:37.388Z,22.10
2019-02-17T08:50:37.425Z,23.00
2019-02-17T08:51:37.430Z,21.60
2019-02-17T08:52:37.414Z,22.70
2019-02-17T08:53:37.421Z,20.10
2019-02-17T08:54:37.464Z,19.10
2019-02-17T08:55:37.489Z,20.40
2019-02-17T08:56:37.461Z,21.90
2019-02-17T08:57:38.091Z,20.40
2019-02-17T08:58:37.480Z,22.30
2019-02-17T08:59:37.490Z,21.20
2019-02-17T09:00:37.535Z,21.00
2019-02-17T09:01:37.519Z,20.40
2019-02-17T09:02:37.597Z,21.40
2019-02-17T09:03:37.535Z,21.10
2019-02-17T09:04:37.546Z,21.80
2019-02-17T09:05:44.177Z,20.60
2019-02-17T09:06:37.604Z,22.80
2019-02-17T09:07:37.614Z,22.00
2019-02-17T09:08:37.737Z,21.00
2019-02-17T09:09:37.603Z,21.70
2019-02-17T09:10:37.615Z,23.30
2019-02-17T09:11:37.637Z,23.00
2019-02-17T09:12:37.676Z,23.60
2019-02-17T09:13:37.657Z,20.90
2019-02-17T09:14:37.664Z,21.90
2019-02-17T09:15:37.706Z,21.00
2019-02-17T09:16:37.698Z,21.30
2019-02-17T09:17:37.701Z,22.40
2019-02-17T09:18:37.756Z,22.70
2019-02-17T09:19:37.723Z,21.80
2019-02-17T09:20:37.770Z,20.60
2019-02-17T09:21:37.748Z,21.00
2019-02-17T09:22:37.772Z,21.50
2019-02-17T09:23:37.774Z,21.60
2019-02-17T09:24:37.782Z,22.70
2019-02-17T09:25:37.832Z,22.70
2019-02-17T09:26:37.811Z,22.90
2019-02-17T09:27:37.826Z,21.40
2019-02-17T09:28:37.834Z,22.90
2019-02-17T09:29:37.856Z,20.40
2019-02-17T09:30:37.915Z,22.50
2019-02-17T09:31:37.876Z,21.00
2019-02-17T09:32:38.896Z,20.60
2019-02-17T09:33:37.902Z,20.70
2019-02-17T09:34:38.450Z,19.90
2019-02-17T09:35:37.966Z,20.90
2019-02-17T09:36:37.948Z,21.90
2019-02-17T09:37:37.965Z,18.80
2019-02-17T09:38:37.975Z,21.60
2019-02-17T09:39:37.986Z,21.50
2019-02-17T09:40:38.030Z,19.90
2019-02-17T09:41:38.018Z,19.40
2019-02-17T09:42:38.037Z,20.10
2019-02-17T09:43:38.053Z,21.00
2019-02-17T09:44:38.058Z,18.30
2019-02-17T09:45:38.101Z,19.50
2019-02-17T09:46:38.128Z,19.50
2019-02-17T09:47:38.103Z,20.90
2019-02-17T09:48:38.239Z,19.70
2019-02-17T09:49:38.142Z,23.00
2019-02-17T09:50:38.153Z,20.00
2019-02-17T09:51:38.204Z,20.40
2019-02-17T09:52:38.178Z,20.50
2019-02-17T09:53:38.193Z,18.00
2019-02-17T09:54:38.391Z,22.10
2019-02-17T09:55:38.227Z,20.80
2019-02-17T09:56:38.269Z,20.50
2019-02-17T09:57:38.295Z,20.50
2019-02-17T09:58:38.287Z,20.10
2019-02-17T09:59:38.290Z,19.30
2019-02-17T10:00:38.309Z,19.30
2019-02-17T10:01:38.357Z,20.20
2019-02-17T10:02:38.343Z,20.00
2019-02-17T10:03:38.399Z,20.40
2019-02-17T10:04:38.383Z,20.30
2019-02-17T10:05:38.396Z,21.30
2019-02-17T10:06:38.454Z,20.60
2019-02-17T10:07:38.428Z,18.00
2019-02-17T10:08:38.450Z,35.30
2019-02-17T10:09:38.471Z,20.10
2019-02-17T10:10:38.482Z,31.10
2019-02-17T10:11:38.531Z,22.10
2019-02-17T10:12:38.514Z,22.30
2019-02-17T10:13:38.583Z,20.90
2019-02-17T10:14:38.611Z,19.60
2019-02-17T10:15:38.562Z,19.10
2019-02-17T10:16:38.613Z,19.70
2019-02-17T10:17:38.593Z,19.10
2019-02-17T10:18:38.662Z,20.70
2019-02-17T10:19:38.631Z,19.10
2019-02-17T10:20:38.648Z,21.40
2019-02-17T10:21:38.690Z,21.00
2019-02-17T10:22:38.678Z,19.10
2019-02-17T10:23:38.709Z,25.60
2019-02-17T10:24:38.750Z,20.40
2019-02-17T10:25:38.731Z,21.10
2019-02-17T10:26:38.750Z,19.60
2019-02-17T10:27:38.774Z,20.60
2019-02-17T10:28:42.371Z,18.80
2019-02-17T10:29:38.832Z,19.10
2019-02-17T10:30:38.855Z,19.40
2019-02-17T10:31:38.868Z,20.20
2019-02-17T10:32:39.344Z,18.90
2019-02-17T10:33:38.870Z,18.60
2019-02-17T10:34:38.960Z,19.50
2019-02-17T10:35:40.448Z,18.80
2019-02-17T10:36:38.963Z,19.20
2019-02-17T10:37:38.942Z,20.80
2019-02-17T10:38:38.966Z,17.60
2019-02-17T10:39:38.981Z,18.40
2019-02-17T10:40:38.998Z,19.10
2019-02-17T10:41:39.056Z,18.20
2019-02-17T10:42:39.030Z,18.80
2019-02-17T10:43:39.050Z,19.50
2019-02-17T10:44:39.077Z,20.20
2019-02-17T10:45:39.091Z,19.80
2019-02-17T10:46:39.143Z,18.70
2019-02-17T10:47:39.174Z,18.30
2019-02-17T10:48:39.147Z,18.50
2019-02-17T10:49:39.167Z,18.00
2019-02-17T10:50:39.195Z,20.80
2019-02-17T10:51:39.211Z,18.40
2019-02-17T10:52:39.258Z,18.80
2019-02-17T10:53:39.243Z,18.10
2019-02-17T10:54:39.407Z,17.40
2019-02-17T10:55:39.287Z,17.80
2019-02-17T10:56:39.307Z,19.70
2019-02-17T10:57:39.366Z,16.20
2019-02-17T10:58:39.385Z,19.10
2019-02-17T10:59:39.383Z,17.40
2019-02-17T11:00:39.390Z,17.80
2019-02-17T11:01:39.417Z,15.60
2019-02-17T11:02:46.768Z,16.30
2019-02-17T11:03:39.494Z,15.90
2019-02-17T11:04:39.471Z,15.70
2019-02-17T11:05:39.500Z,15.40
2019-02-17T11:06:39.535Z,16.70
2019-02-17T11:07:39.570Z,16.70
2019-02-17T11:08:39.561Z,17.50
2019-02-17T11:09:39.585Z,15.20
2019-02-17T11:10:39.602Z,17.10
2019-02-17T11:11:39.629Z,16.30
2019-02-17T11:12:39.681Z,16.10
2019-02-17T11:13:39.700Z,17.20
2019-02-17T11:14:39.753Z,18.90
2019-02-17T11:15:39.704Z,17.60
2019-02-17T11:16:39.723Z,16.90
2019-02-17T11:17:39.774Z,17.00
2019-02-17T11:18:39.764Z,16.00
2019-02-17T11:19:39.823Z,16.70
2019-02-17T11:20:39.804Z,17.30
2019-02-17T11:21:39.825Z,17.60
2019-02-17T11:22:39.875Z,17.30
2019-02-17T11:23:39.864Z,15.70
2019-02-17T11:24:39.889Z,15.90
2019-02-17T11:25:39.904Z,15.00
2019-02-17T11:26:39.921Z,17.20
2019-02-17T11:27:39.975Z,16.80
2019-02-17T11:28:39.956Z,16.70
2019-02-17T11:29:39.975Z,15.50
2019-02-17T11:30:40.006Z,16.30
2019-02-17T11:31:40.014Z,16.50
2019-02-17T11:32:40.077Z,15.30
2019-02-17T11:33:40.048Z,16.50
2019-02-17T11:34:40.208Z,18.00
2019-02-17T11:35:40.090Z,16.90
2019-02-17T11:36:40.103Z,17.30
2019-02-17T11:37:40.159Z,16.30
2019-02-17T11:38:40.181Z,15.30
2019-02-17T11:39:40.161Z,17.40
2019-02-17T11:40:40.174Z,17.30
2019-02-17T11:41:40.194Z,16.10
2019-02-17T11:42:40.247Z,17.10
2019-02-17T11:43:40.235Z,17.50
2019-02-17T11:44:40.241Z,15.30
2019-02-17T11:45:40.263Z,16.80
2019-02-17T11:46:40.276Z,16.00
2019-02-17T11:47:40.333Z,17.20
2019-02-17T11:48:40.323Z,16.30
2019-02-17T11:49:40.336Z,15.90
2019-02-17T11:50:40.352Z,17.70
2019-02-17T11:51:40.372Z,16.40
2019-02-17T11:52:40.421Z,15.80
2019-02-17T11:53:40.442Z,15.30
2019-02-17T11:54:40.599Z,17.30
2019-02-17T11:55:40.441Z,13.90
2019-02-17T11:56:40.463Z,15.90
2019-02-17T11:57:40.517Z,16.00
2019-02-17T11:58:40.506Z,13.70
2019-02-17T11:59:40.546Z,13.60
2019-02-17T12:00:40.570Z,14.70
2019-02-17T12:01:40.556Z,12.70
2019-02-17T12:02:40.587Z,12.60
2019-02-17T12:03:40.594Z,11.40
2019-02-17T12:04:40.614Z,9.50
2019-02-17T12:05:40.671Z,9.50
2019-02-17T12:06:40.659Z,9.30
2019-02-17T12:07:40.677Z,9.60
2019-02-17T12:08:40.693Z,9.00
2019-02-17T12:09:40.714Z,9.50
2019-02-17T12:10:40.765Z,8.50
2019-02-17T12:11:40.792Z,9.40
2019-02-17T12:12:40.775Z,8.10
2019-02-17T12:13:40.824Z,9.20
2019-02-17T12:14:40.994Z,9.20
2019-02-17T12:15:40.826Z,8.20
2019-02-17T12:16:40.883Z,9.40
2019-02-17T12:17:40.873Z,9.30
2019-02-17T12:18:40.888Z,8.40
2019-02-17T12:19:40.902Z,8.10
2019-02-17T12:20:41.466Z,9.40
2019-02-17T12:21:40.990Z,10.80
2019-02-17T12:22:40.964Z,8.40
2019-02-17T12:23:41.016Z,8.20
2019-02-17T12:24:40.997Z,8.20
2019-02-17T12:25:41.018Z,8.70
2019-02-17T12:26:41.037Z,8.10
2019-02-17T12:27:41.289Z,8.20
2019-02-17T12:28:41.100Z,8.70
2019-02-17T12:29:41.101Z,8.10
2019-02-17T12:30:41.101Z,7.70
2019-02-17T12:31:41.112Z,8.80
2019-02-17T12:32:41.134Z,9.80
2019-02-17T12:33:41.176Z,8.70
2019-02-17T12:34:41.167Z,7.00
2019-02-17T12:35:41.189Z,7.50
2019-02-17T12:36:41.206Z,8.00
2019-02-17T12:37:41.216Z,7.40
2019-02-17T12:38:41.272Z,8.30
2019-02-17T12:39:41.247Z,8.80
2019-02-17T12:40:41.266Z,8.20
2019-02-17T12:41:41.399Z,8.70
2019-02-17T12:42:41.303Z,8.90
2019-02-17T12:43:41.350Z,9.00
2019-02-17T12:44:41.329Z,8.50
2019-02-17T12:45:41.346Z,8.70
2019-02-17T12:46:41.361Z,7.80
2019-02-17T12:47:41.382Z,8.20
2019-02-17T12:48:41.430Z,7.40
2019-02-17T12:49:41.420Z,8.30
2019-02-17T12:50:41.431Z,8.50
2019-02-17T12:51:41.441Z,7.40
2019-02-17T12:52:47.269Z,7.90
2019-02-17T12:53:41.506Z,7.50
2019-02-17T12:54:41.488Z,7.70